Time;durP1;ratioP1;P1;durP2;ratioP2;P2;SDS_P1;SDS_P2;PMS_P1;PMS_P2;Temp;Humidity;BMP_temperature;BMP_pressure;BME280_temperature;BME280_humidity;BME280_pressure;Samples;Min_cycle;Max_cycle;Signal;HPM_P1;HPM_P2
2021/11/09 00:01:08;;;;;;;1.63;1.30;;;7.40;98.20;;;;;;5026405;28;21055;-75
2021/11/09 00:03:42;;;;;;;1.60;1.40;;;7.40;98.20;;;;;;5027369;28;20549;-75
2021/11/09 00:06:16;;;;;;;1.60;1.30;;;7.40;98.20;;;;;;5027087;28;20459;-75
2021/11/09 00:08:49;;;;;;;1.60;1.40;;;7.30;98.20;;;;;;5026330;28;21005;-75
2021/11/09 00:11:16;;;;;;;1.63;1.40;;;7.30;98.20;;;;;;5026705;28;20911;-75
2021/11/09 00:13:43;;;;;;;1.60;1.30;;;7.30;98.20;;;;;;5026806;28;20490;-75
2021/11/09 00:16:10;;;;;;;1.60;1.30;;;7.20;98.20;;;;;;5027022;28;21354;-75
2021/11/09 00:18:37;;;;;;;1.60;1.30;;;7.20;98.20;;;;;;5025626;28;20487;-75
2021/11/09 00:21:04;;;;;;;1.67;1.40;;;7.20;98.20;;;;;;5026666;28;20486;-75
2021/11/09 00:23:31;;;;;;;1.60;1.30;;;7.10;98.20;;;;;;5026611;28;20464;-75
2021/11/09 00:25:59;;;;;;;1.67;1.30;;;7.10;98.20;;;;;;5024618;28;20524;-75
2021/11/09 00:28:26;;;;;;;1.60;1.30;;;7.10;98.20;;;;;;5023854;28;20483;-75
2021/11/09 00:30:53;;;;;;;1.60;1.40;;;7.00;98.20;;;;;;5026626;28;20951;-75
2021/11/09 00:33:20;;;;;;;1.70;1.43;;;7.00;98.20;;;;;;5026762;28;20478;-75
2021/11/09 00:35:46;;;;;;;1.60;1.30;;;7.00;98.20;;;;;;5026329;28;20840;-75
2021/11/09 00:38:13;;;;;;;1.60;1.30;;;6.90;98.20;;;;;;5023342;28;21103;-74
2021/11/09 00:40:42;;;;;;;1.60;1.40;;;6.90;98.20;;;;;;5025127;28;20470;-75
2021/11/09 00:43:13;;;;;;;1.60;1.37;;;6.90;98.20;;;;;;5025435;28;20544;-75
2021/11/09 00:45:40;;;;;;;1.60;1.30;;;6.80;98.20;;;;;;5022598;28;20779;-75
2021/11/09 00:48:07;;;;;;;1.60;1.37;;;6.80;98.20;;;;;;5024869;28;20483;-75
2021/11/09 00:50:35;;;;;;;1.60;1.30;;;6.80;98.20;;;;;;5024965;28;20954;-75
2021/11/09 00:53:03;;;;;;;1.60;1.30;;;6.80;98.20;;;;;;5024217;28;20474;-75
2021/11/09 00:55:31;;;;;;;1.67;1.40;;;6.80;98.20;;;;;;5024160;28;20523;-75
2021/11/09 00:57:57;;;;;;;1.60;1.30;;;6.70;98.20;;;;;;5025094;28;20510;-75
2021/11/09 01:00:29;;;;;;;1.60;1.30;;;6.70;98.20;;;;;;5024722;28;21214;-75
2021/11/09 01:02:57;;;;;;;1.60;1.40;;;6.70;98.20;;;;;;5027862;28;20466;-75
2021/11/09 01:05:26;;;;;;;1.60;1.40;;;6.60;98.20;;;;;;5028712;28;20911;-75
2021/11/09 01:07:57;;;;;;;1.60;1.30;;;6.60;98.20;;;;;;5028103;28;20502;-75
2021/11/09 01:10:25;;;;;;;1.60;1.30;;;6.60;98.20;;;;;;5027864;28;20511;-74
2021/11/09 01:12:52;;;;;;;1.60;1.30;;;6.50;98.20;;;;;;5028659;28;20966;-75
2021/11/09 01:15:19;;;;;;;1.60;1.30;;;6.50;98.20;;;;;;5023788;28;20482;-75
2021/11/09 01:17:47;;;;;;;1.60;1.37;;;6.50;98.20;;;;;;5027250;28;20486;-75
2021/11/09 01:20:18;;;;;;;1.60;1.30;;;6.40;98.20;;;;;;5028705;28;20470;-75
2021/11/09 01:22:50;;;;;;;1.63;1.30;;;6.40;98.20;;;;;;5028307;28;20917;-75
2021/11/09 01:25:17;;;;;;;1.60;1.30;;;6.40;98.20;;;;;;5026730;28;20460;-75
2021/11/09 01:27:44;;;;;;;1.63;1.30;;;6.30;98.20;;;;;;5027546;28;20483;-75
2021/11/09 01:30:12;;;;;;;1.60;1.40;;;6.30;98.20;;;;;;5029096;28;20687;-75
2021/11/09 01:32:39;;;;;;;1.70;1.40;;;6.30;98.20;;;;;;5028182;28;20463;-75
2021/11/09 01:35:09;;;;;;;1.70;1.40;;;6.30;98.20;;;;;;5028318;28;20498;-75
2021/11/09 01:37:36;;;;;;;1.60;1.30;;;6.20;98.20;;;;;;5027420;28;20495;-75
2021/11/09 01:40:05;;;;;;;1.67;1.40;;;6.20;98.20;;;;;;5026760;28;20567;-75
2021/11/09 01:42:31;;;;;;;1.60;1.40;;;6.20;98.20;;;;;;5027689;28;20490;-74
2021/11/09 01:44:58;;;;;;;1.60;1.27;;;6.20;98.20;;;;;;5027549;28;20455;-74
2021/11/09 01:47:25;;;;;;;1.60;1.30;;;6.10;98.20;;;;;;5026110;28;20487;-74
2021/11/09 01:49:52;;;;;;;1.60;1.30;;;6.10;98.20;;;;;;5028117;28;20486;-74
2021/11/09 01:52:20;;;;;;;1.60;1.30;;;6.10;98.20;;;;;;5027339;28;20963;-74
2021/11/09 01:54:47;;;;;;;1.67;1.40;;;6.10;98.20;;;;;;5028733;28;20487;-75
2021/11/09 01:57:13;;;;;;;1.67;1.40;;;6.00;98.20;;;;;;5026814;28;20497;-75
2021/11/09 01:59:40;;;;;;;1.60;1.40;;;6.00;98.20;;;;;;5027832;28;20475;-74
2021/11/09 02:02:07;;;;;;;1.60;1.33;;;6.00;98.20;;;;;;5027079;28;20490;-74
2021/11/09 02:04:34;;;;;;;1.60;1.40;;;6.00;98.20;;;;;;5028230;28;20765;-74
2021/11/09 02:07:01;;;;;;;1.60;1.40;;;6.00;98.20;;;;;;5026981;28;21047;-74
2021/11/09 02:09:29;;;;;;;1.60;1.40;;;5.90;98.20;;;;;;5027432;28;20470;-75
2021/11/09 02:11:55;;;;;;;1.60;1.33;;;5.90;98.20;;;;;;5027385;28;20475;-75
2021/11/09 02:14:22;;;;;;;1.60;1.30;;;5.90;98.20;;;;;;5027442;28;20487;-74
2021/11/09 02:16:51;;;;;;;1.60;1.40;;;5.90;98.20;;;;;;5026786;28;20479;-74
2021/11/09 02:19:17;;;;;;;1.60;1.40;;;5.90;98.20;;;;;;5027172;28;20474;-74
2021/11/09 02:21:45;;;;;;;1.60;1.40;;;5.80;98.20;;;;;;5027095;28;21219;-74
2021/11/09 02:24:12;;;;;;;1.60;1.40;;;5.80;98.20;;;;;;5026800;28;20455;-74
2021/11/09 02:26:40;;;;;;;1.60;1.30;;;5.90;98.20;;;;;;5026837;28;20811;-74
2021/11/09 02:29:07;;;;;;;1.63;1.40;;;5.90;98.20;;;;;;5028171;28;20493;-74
2021/11/09 02:31:34;;;;;;;1.60;1.30;;;5.80;98.20;;;;;;5027160;28;20957;-75
2021/11/09 02:34:01;;;;;;;1.60;1.30;;;5.80;98.20;;;;;;5027463;28;20467;-74
2021/11/09 02:36:28;;;;;;;1.60;1.30;;;5.80;98.20;;;;;;5026436;28;20825;-74
2021/11/09 02:38:56;;;;;;;1.60;1.40;;;5.80;98.20;;;;;;5024826;28;20481;-74
2021/11/09 02:41:30;;;;;;;1.67;1.50;;;5.80;98.20;;;;;;5023793;28;20454;-75
2021/11/09 02:43:59;;;;;;;1.63;1.40;;;5.80;98.20;;;;;;5028951;28;20993;-75
2021/11/09 02:46:44;;;;;;;1.60;1.40;;;5.80;98.20;;;;;;5028414;28;20459;-75
2021/11/09 02:49:17;;;;;;;1.60;1.40;;;5.80;98.20;;;;;;5030135;28;20467;-74
2021/11/09 02:51:47;;;;;;;1.63;1.40;;;5.70;98.20;;;;;;5032720;28;20459;-74
2021/11/09 02:54:21;;;;;;;1.67;1.40;;;5.70;98.20;;;;;;5039712;28;20846;-74
2021/11/09 02:56:51;;;;;;;1.60;1.40;;;5.70;98.20;;;;;;5029776;28;20487;-74
2021/11/09 02:59:31;;;;;;;1.70;1.40;;;5.60;98.20;;;;;;5030279;28;20838;-74
2021/11/09 03:02:02;;;;;;;1.60;1.30;;;5.60;98.20;;;;;;5030083;28;20567;-74
2021/11/09 03:04:39;;;;;;;1.60;1.30;;;5.60;98.20;;;;;;5030608;28;20494;-74
2021/11/09 03:07:09;;;;;;;1.60;1.40;;;5.60;98.20;;;;;;5026036;28;20841;-74
2021/11/09 03:09:45;;;;;;;1.70;1.40;;;5.60;98.20;;;;;;5027085;28;20459;-74
2021/11/09 03:12:12;;;;;;;1.67;1.40;;;5.50;98.20;;;;;;5030388;28;20470;-74
2021/11/09 03:14:41;;;;;;;1.60;1.40;;;5.50;98.20;;;;;;5029936;28;20487;-74
2021/11/09 03:17:15;;;;;;;1.70;1.50;;;5.50;98.20;;;;;;5028080;28;20532;-74
2021/11/09 03:19:45;;;;;;;1.60;1.40;;;5.40;98.20;;;;;;5030664;28;20458;-74
2021/11/09 03:44:21;;;;;;;1.60;1.40;;;5.30;98.20;;;;;;5030264;28;20574;-73
2021/11/09 03:46:51;;;;;;;1.70;1.43;;;5.30;98.20;;;;;;5028704;28;20497;-73
2021/11/09 03:49:20;;;;;;;1.67;1.43;;;5.20;98.20;;;;;;5029088;28;21004;-73
2021/11/09 03:51:47;;;;;;;1.60;1.30;;;5.20;98.20;;;;;;5029917;28;20471;-74
2021/11/09 03:54:15;;;;;;;1.60;1.30;;;5.20;98.20;;;;;;5029579;28;20546;-73
2021/11/09 03:56:47;;;;;;;1.67;1.40;;;5.20;98.20;;;;;;5028049;28;20521;-74
2021/11/09 03:59:18;;;;;;;1.60;1.40;;;5.20;98.20;;;;;;5029059;28;20519;-74
2021/11/09 04:02:00;;;;;;;1.60;1.40;;;5.20;98.20;;;;;;5029550;28;20463;-73
2021/11/09 04:04:36;;;;;;;1.67;1.50;;;5.20;98.20;;;;;;5029923;28;20466;-74
2021/11/09 04:07:07;;;;;;;1.60;1.40;;;5.20;98.20;;;;;;5029213;28;21095;-73
2021/11/09 04:12:31;;;;;;;1.60;1.30;;;5.20;98.20;;;;;;5028414;28;20483;-73
2021/11/09 04:15:09;;;;;;;1.60;1.33;;;5.20;98.20;;;;;;5029110;28;20572;-74
2021/11/09 04:17:51;;;;;;;1.67;1.50;;;5.20;98.20;;;;;;5027099;28;20498;-74
2021/11/09 04:20:30;;;;;;;1.70;1.60;;;5.20;98.20;;;;;;5027218;28;20558;-74
2021/11/09 04:26:15;;;;;;;1.60;1.33;;;5.30;98.20;;;;;;5027633;28;20463;-74
2021/11/09 04:28:58;;;;;;;1.60;1.40;;;5.30;98.20;;;;;;5028414;28;20487;-74
2021/11/09 05:02:48;;;;;;;1.60;1.40;;;5.20;98.20;;;;;;5064947;28;20449;-74
2021/11/09 05:08:27;;;;;;;1.63;1.40;;;5.20;98.20;;;;;;5064643;28;20523;-74
2021/11/09 05:10:57;;;;;;;1.70;1.60;;;5.20;98.20;;;;;;5070274;28;20559;-74
2021/11/09 05:13:24;;;;;;;1.60;1.40;;;5.20;98.20;;;;;;5071751;28;20482;-74
2021/11/09 05:15:51;;;;;;;1.60;1.40;;;5.20;98.20;;;;;;5067792;28;20861;-75
2021/11/09 05:18:18;;;;;;;1.63;1.47;;;5.20;98.20;;;;;;5066092;28;20492;-74
2021/11/09 05:20:45;;;;;;;1.60;1.40;;;5.20;98.20;;;;;;5082550;28;20472;-75
2021/11/09 05:23:13;;;;;;;1.60;1.40;;;5.20;98.20;;;;;;5084961;28;20543;-74
2021/11/09 05:25:40;;;;;;;1.67;1.40;;;5.20;98.20;;;;;;5082146;28;20486;-74
2021/11/09 05:28:09;;;;;;;1.63;1.40;;;5.20;98.20;;;;;;5070785;28;20970;-74
2021/11/09 05:30:38;;;;;;;1.63;1.30;;;5.10;98.20;;;;;;5063037;28;20457;-74
2021/11/09 05:33:06;;;;;;;1.60;1.40;;;5.10;98.20;;;;;;5063496;28;20497;-74
2021/11/09 05:35:33;;;;;;;1.70;1.50;;;5.10;98.20;;;;;;5064801;28;20465;-74
2021/11/09 05:38:02;;;;;;;1.60;1.33;;;5.10;98.20;;;;;;5061290;28;21137;-74
2021/11/09 05:40:32;;;;;;;1.67;1.40;;;5.10;98.20;;;;;;5069805;28;20461;-74
2021/11/09 05:43:00;;;;;;;1.60;1.40;;;5.10;98.20;;;;;;5077413;28;20467;-74
2021/11/09 05:45:29;;;;;;;1.60;1.40;;;5.00;98.20;;;;;;5067978;28;20457;-74
2021/11/09 05:47:56;;;;;;;2.37;2.17;;;5.00;98.20;;;;;;5064635;28;20497;-74
2021/11/09 05:50:23;;;;;;;1.60;1.40;;;5.00;98.20;;;;;;5057837;28;20466;-74
2021/11/09 05:52:50;;;;;;;1.63;1.40;;;5.00;98.20;;;;;;5065308;28;20480;-74
2021/11/09 05:55:17;;;;;;;1.60;1.40;;;5.00;98.20;;;;;;5070335;28;20481;-74
2021/11/09 05:57:45;;;;;;;1.60;1.33;;;5.00;98.20;;;;;;5055619;28;20577;-74
2021/11/09 06:00:14;;;;;;;1.60;1.40;;;4.90;98.20;;;;;;5062601;28;20501;-73
2021/11/09 06:02:43;;;;;;;1.60;1.40;;;4.90;98.20;;;;;;5061651;28;20461;-74
2021/11/09 06:05:10;;;;;;;1.60;1.40;;;4.90;98.20;;;;;;5053107;28;20458;-74
2021/11/09 06:07:37;;;;;;;1.70;1.50;;;4.90;98.20;;;;;;5048669;28;20492;-73
2021/11/09 06:10:04;;;;;;;1.60;1.40;;;4.90;98.20;;;;;;5049820;28;20838;-73
2021/11/09 06:12:31;;;;;;;1.70;1.40;;;4.80;98.20;;;;;;5049835;28;20494;-74
2021/11/09 06:14:58;;;;;;;1.60;1.40;;;4.90;98.20;;;;;;5052683;28;20463;-73
2021/11/09 06:17:25;;;;;;;1.60;1.40;;;4.80;98.20;;;;;;5050476;28;20489;-73
2021/11/09 06:19:54;;;;;;;1.63;1.40;;;4.80;98.20;;;;;;5064607;28;20466;-74
2021/11/09 06:22:22;;;;;;;1.60;1.40;;;4.80;98.20;;;;;;5068192;28;20474;-74
2021/11/09 06:24:49;;;;;;;1.60;1.50;;;4.80;98.20;;;;;;5069169;28;20484;-74
2021/11/09 06:27:17;;;;;;;1.63;1.40;;;4.80;98.20;;;;;;5065869;28;20512;-73
2021/11/09 06:29:44;;;;;;;1.60;1.40;;;4.80;98.20;;;;;;5067372;28;20468;-74
2021/11/09 06:32:11;;;;;;;1.60;1.40;;;4.80;98.20;;;;;;5069711;28;20970;-73
2021/11/09 06:34:39;;;;;;;1.60;1.30;;;4.80;98.20;;;;;;5054584;28;21015;-75
2021/11/09 06:37:07;;;;;;;1.63;1.40;;;4.80;98.20;;;;;;5049669;28;20505;-75
2021/11/09 06:39:34;;;;;;;1.60;1.40;;;4.90;98.20;;;;;;5051266;28;20470;-75
2021/11/09 06:42:01;;;;;;;1.60;1.50;;;4.90;98.20;;;;;;5049874;28;20469;-74
2021/11/09 06:44:29;;;;;;;1.60;1.30;;;4.90;98.20;;;;;;5047898;28;20454;-73
2021/11/09 06:46:56;;;;;;;1.60;1.30;;;4.90;98.20;;;;;;5052962;28;20776;-75
2021/11/09 06:49:23;;;;;;;1.60;1.40;;;5.00;98.20;;;;;;5062303;28;20464;-73
2021/11/09 06:51:50;;;;;;;1.60;1.40;;;5.00;98.20;;;;;;5069489;28;20473;-74
2021/11/09 06:54:19;;;;;;;1.60;1.40;;;5.10;98.20;;;;;;5064816;28;20577;-73
2021/11/09 06:56:55;;;;;;;1.60;1.30;;;5.20;98.20;;;;;;5048000;28;21006;-73
2021/11/09 06:59:24;;;;;;;1.67;1.40;;;5.20;98.20;;;;;;5051191;28;20476;-72
2021/11/09 07:01:51;;;;;;;1.60;1.40;;;5.30;98.20;;;;;;5059668;28;20485;-74
2021/11/09 07:04:18;;;;;;;1.60;1.30;;;5.30;98.20;;;;;;5048625;28;20520;-75
2021/11/09 07:06:45;;;;;;;1.60;1.40;;;5.30;98.20;;;;;;5045586;28;20582;-74
2021/11/09 07:09:13;;;;;;;1.60;1.30;;;5.30;98.20;;;;;;5047496;28;20953;-74
2021/11/09 07:11:41;;;;;;;1.70;1.50;;;5.40;98.20;;;;;;5046267;28;20470;-74
2021/11/09 07:14:08;;;;;;;1.60;1.37;;;5.40;98.20;;;;;;5048752;28;20481;-74
2021/11/09 07:16:36;;;;;;;1.63;1.40;;;5.40;98.20;;;;;;5043572;28;20501;-74
2021/11/09 07:19:04;;;;;;;1.63;1.33;;;5.40;98.20;;;;;;5044028;28;20478;-73
2021/11/09 07:21:32;;;;;;;1.63;1.40;;;5.40;98.20;;;;;;5047706;28;20889;-74
2021/11/09 07:23:59;;;;;;;1.67;1.40;;;5.50;98.20;;;;;;5049176;28;20451;-74
2021/11/09 07:26:27;;;;;;;1.60;1.40;;;5.50;98.20;;;;;;5047939;28;20584;-74
2021/11/09 07:28:56;;;;;;;1.60;1.40;;;5.60;98.20;;;;;;5054920;28;20467;-73
2021/11/09 07:31:24;;;;;;;1.60;1.30;;;5.70;98.20;;;;;;5046975;28;20561;-74
2021/11/09 07:33:51;;;;;;;1.60;1.40;;;5.80;98.20;;;;;;5047735;28;20851;-74
2021/11/09 07:36:19;;;;;;;2.10;1.90;;;5.80;98.20;;;;;;5049802;28;20458;-74
2021/11/09 07:38:46;;;;;;;1.70;1.50;;;5.90;98.20;;;;;;5053001;28;20484;-73
2021/11/09 07:41:13;;;;;;;1.60;1.40;;;6.00;98.20;;;;;;5054244;28;20476;-73
2021/11/09 07:43:41;;;;;;;1.70;1.40;;;6.10;98.20;;;;;;5059902;28;20457;-74
2021/11/09 07:46:09;;;;;;;1.60;1.30;;;6.20;98.20;;;;;;5050559;28;20490;-73
2021/11/09 07:48:36;;;;;;;1.63;1.33;;;6.30;98.20;;;;;;5045930;28;20569;-73
2021/11/09 07:51:04;;;;;;;1.60;1.23;;;6.40;98.20;;;;;;5049783;28;20907;-74
2021/11/09 07:53:34;;;;;;;1.60;1.30;;;6.50;98.20;;;;;;5042839;28;20540;-74
2021/11/09 07:56:15;;;;;;;1.60;1.30;;;6.60;98.20;;;;;;5042421;28;20512;-74
2021/11/09 07:58:48;;;;;;;1.60;1.30;;;6.70;98.20;;;;;;5048007;28;20492;-74
2021/11/09 08:01:19;;;;;;;1.60;1.30;;;6.80;98.20;;;;;;5041233;28;20459;-74
2021/11/09 08:03:49;;;;;;;1.60;1.30;;;6.90;98.20;;;;;;5053040;28;20461;-75
2021/11/09 08:06:20;;;;;;;1.60;1.30;;;7.00;98.20;;;;;;5064398;28;20465;-74
2021/11/09 08:11:35;;;;;;;1.63;1.30;;;7.20;98.20;;;;;;5049998;28;20469;-74
2021/11/09 08:14:02;;;;;;;1.60;1.30;;;7.30;98.20;;;;;;5045653;28;20573;-74
2021/11/09 08:16:30;;;;;;;1.60;1.30;;;7.40;98.20;;;;;;5044857;28;20484;-73
2021/11/09 08:18:57;;;;;;;1.60;1.30;;;7.40;98.20;;;;;;5043935;28;20462;-73
2021/11/09 08:21:24;;;;;;;1.60;1.30;;;7.50;98.20;;;;;;5047536;28;20461;-73
2021/11/09 08:23:51;;;;;;;1.60;1.30;;;7.60;98.20;;;;;;5062895;28;20914;-74
2021/11/09 08:26:20;;;;;;;1.60;1.30;;;7.70;98.20;;;;;;5059302;28;21152;-74
2021/11/09 08:28:47;;;;;;;1.60;1.30;;;7.80;98.20;;;;;;5057265;28;20596;-73
2021/11/09 08:31:17;;;;;;;1.60;1.30;;;7.90;98.20;;;;;;5058044;28;20550;-73
2021/11/09 08:33:46;;;;;;;1.60;1.30;;;8.00;98.20;;;;;;5057499;28;20590;-74
2021/11/09 08:36:15;;;;;;;1.60;1.30;;;8.10;98.20;;;;;;5058794;28;20886;-73
2021/11/09 08:38:43;;;;;;;1.60;1.30;;;8.20;98.20;;;;;;5059155;28;20481;-74
2021/11/09 08:41:11;;;;;;;1.67;1.30;;;8.20;98.20;;;;;;5049777;28;20458;-75
2021/11/09 08:43:41;;;;;;;1.60;1.30;;;8.30;98.20;;;;;;5048553;28;20553;-73
2021/11/09 08:46:15;;;;;;;1.60;1.20;;;8.40;98.20;;;;;;5045002;28;20831;-74
2021/11/09 08:48:44;;;;;;;1.60;1.20;;;8.40;98.20;;;;;;5045169;28;20808;-73
2021/11/09 08:51:13;;;;;;;1.60;1.20;;;8.50;98.20;;;;;;5062594;28;20831;-74
2021/11/09 08:53:43;;;;;;;1.60;1.30;;;8.60;98.20;;;;;;5059765;28;20485;-73
2021/11/09 08:56:23;;;;;;;2.57;2.37;;;8.60;98.20;;;;;;5060190;28;20868;-73
2021/11/09 09:04:24;;;;;;;1.70;1.60;;;8.90;98.20;;;;;;5060684;28;20458;-75
2021/11/09 09:06:55;;;;;;;1.60;1.20;;;9.00;98.20;;;;;;5050581;28;20838;-73
2021/11/09 09:09:22;;;;;;;1.60;1.20;;;9.10;98.20;;;;;;5042343;28;20504;-73
2021/11/09 09:11:50;;;;;;;1.60;1.20;;;9.20;98.20;;;;;;5059617;28;20476;-73
2021/11/09 09:14:18;;;;;;;1.60;1.30;;;9.20;98.20;;;;;;5046931;28;20490;-74
2021/11/09 09:16:46;;;;;;;1.60;1.20;;;9.30;98.20;;;;;;5043965;28;20632;-74
2021/11/09 09:19:14;;;;;;;1.60;1.20;;;9.30;98.20;;;;;;5045823;28;20573;-74
2021/11/09 09:21:44;;;;;;;1.60;1.20;;;9.30;98.20;;;;;;5051877;28;20556;-74
2021/11/09 09:24:24;;;;;;;1.60;1.20;;;9.40;98.20;;;;;;5065658;28;20457;-75
2021/11/09 09:26:53;;;;;;;1.60;1.20;;;9.40;98.20;;;;;;5052256;28;20973;-77
2021/11/09 09:32:28;;;;;;;1.60;1.20;;;9.60;98.20;;;;;;5052189;28;20840;-77
2021/11/09 09:54:42;;;;;;;1.60;1.10;;;10.40;98.20;;;;;;5065719;28;20858;-74
2021/11/09 09:57:11;;;;;;;1.60;1.20;;;10.40;98.20;;;;;;5043065;28;20589;-73
2021/11/09 09:59:39;;;;;;;1.60;1.20;;;10.50;98.20;;;;;;5048153;28;20553;-73
2021/11/09 10:02:10;;;;;;;1.60;1.17;;;10.60;98.20;;;;;;5063023;28;20467;-74
2021/11/09 10:04:40;;;;;;;1.60;1.20;;;10.70;98.20;;;;;;5062419;28;20462;-74
2021/11/09 10:07:08;;;;;;;1.60;1.20;;;10.80;98.20;;;;;;5057703;28;20614;-75
2021/11/09 10:09:39;;;;;;;1.60;1.10;;;10.80;98.20;;;;;;5065975;28;20773;-76
2021/11/09 10:12:22;;;;;;;2.17;1.97;;;10.80;98.20;;;;;;5058710;28;20997;-75
2021/11/09 10:14:51;;;;;;;1.70;1.40;;;10.80;98.20;;;;;;5048444;28;20539;-75
2021/11/09 10:17:20;;;;;;;1.60;1.10;;;10.90;98.20;;;;;;5045776;28;20577;-77
2021/11/09 10:19:47;;;;;;;1.60;1.10;;;10.90;98.20;;;;;;5052366;28;20461;-74
2021/11/09 10:22:24;;;;;;;1.60;1.10;;;10.90;98.20;;;;;;5064920;28;20473;-74
2021/11/09 10:24:59;;;;;;;1.60;1.17;;;11.00;98.20;;;;;;5053510;28;20454;-73
2021/11/09 10:27:30;;;;;;;1.60;1.10;;;11.10;96.90;;;;;;5060645;28;21205;-73
2021/11/09 10:29:59;;;;;;;1.60;1.20;;;11.10;97.50;;;;;;5062700;28;20461;-74
2021/11/09 10:32:28;;;;;;;1.60;1.10;;;11.20;97.20;;;;;;5063826;28;20464;-75
2021/11/09 10:34:57;;;;;;;1.60;1.20;;;11.20;96.20;;;;;;5044917;28;20486;-76
2021/11/09 10:37:26;;;;;;;1.60;1.40;;;11.20;96.10;;;;;;5045761;28;20478;-76
2021/11/09 10:39:55;;;;;;;1.60;1.10;;;11.30;98.20;;;;;;5056697;28;20473;-75
2021/11/09 10:42:24;;;;;;;1.60;1.10;;;11.50;97.30;;;;;;5057456;28;20471;-75
2021/11/09 10:44:56;;;;;;;1.60;1.10;;;11.50;96.70;;;;;;5049919;28;21245;-73
2021/11/09 10:47:26;;;;;;;1.60;1.10;;;11.60;97.00;;;;;;5041308;28;20484;-74
2021/11/09 10:49:55;;;;;;;1.60;1.23;;;11.80;96.10;;;;;;5053831;28;20465;-75
2021/11/09 10:52:27;;;;;;;1.60;1.10;;;11.80;94.90;;;;;;5048307;28;20473;-75
2021/11/09 10:55:02;;;;;;;1.60;1.03;;;11.90;95.20;;;;;;5049550;28;20544;-74
2021/11/09 10:57:49;;;;;;;1.70;1.50;;;12.00;93.90;;;;;;5059846;28;20516;-75
2021/11/09 11:03:25;;;;;;;1.60;1.10;;;12.10;94.00;;;;;;5072256;27;20909;-75
2021/11/09 11:05:52;;;;;;;1.60;1.10;;;12.40;93.50;;;;;;5074382;28;20468;-74
2021/11/09 11:08:19;;;;;;;1.60;1.00;;;12.50;93.50;;;;;;5067436;28;20485;-75
2021/11/09 11:10:46;;;;;;;1.60;1.10;;;12.60;93.20;;;;;;5063946;28;20538;-75
2021/11/09 11:13:20;;;;;;;1.57;1.00;;;12.70;92.60;;;;;;5072869;28;20966;-75
2021/11/09 11:16:08;;;;;;;1.60;1.10;;;12.70;91.40;;;;;;5076235;28;20914;-75
2021/11/09 11:18:38;;;;;;;1.60;1.10;;;12.80;92.60;;;;;;5075335;28;20491;-78
2021/11/09 11:21:07;;;;;;;1.60;1.10;;;12.90;90.90;;;;;;5074597;28;20495;-75
2021/11/09 11:23:36;;;;;;;1.53;1.00;;;12.90;90.70;;;;;;5070087;28;20522;-75
2021/11/09 11:26:04;;;;;;;1.60;1.10;;;13.00;90.50;;;;;;5075031;28;20461;-76
2021/11/09 11:28:31;;;;;;;1.57;1.07;;;13.00;90.40;;;;;;5078150;28;20489;-76
2021/11/09 11:30:58;;;;;;;1.53;1.00;;;13.00;90.00;;;;;;5070485;28;20836;-75
2021/11/09 11:33:26;;;;;;;1.57;1.10;;;13.00;89.10;;;;;;5074535;28;20468;-76
2021/11/09 11:35:54;;;;;;;1.60;1.13;;;13.00;90.10;;;;;;5063776;28;20984;-75
2021/11/09 11:38:22;;;;;;;1.57;1.07;;;13.00;90.30;;;;;;5066353;28;20488;-75
2021/11/09 11:40:53;;;;;;;1.53;1.10;;;13.00;90.50;;;;;;5076739;28;20465;-72
2021/11/09 11:43:54;;;;;;;1.57;1.00;;;13.00;89.60;;;;;;5077370;28;20457;-74
2021/11/09 11:46:53;;;;;;;1.57;1.00;;;13.00;89.70;;;;;;5037644;28;20458;-75
2021/11/09 11:49:27;;;;;;;1.60;1.10;;;13.00;89.40;;;;;;5033086;28;20861;-72
2021/11/09 11:52:17;;;;;;;1.57;1.00;;;13.10;88.30;;;;;;5061178;28;20472;-72
2021/11/09 11:55:04;;;;;;;1.53;1.00;;;13.10;88.60;;;;;;5064631;28;20547;-72
2021/11/09 11:57:44;;;;;;;1.60;1.10;;;13.10;88.30;;;;;;5063062;28;20489;-72
2021/11/09 12:00:44;;;;;;;1.57;1.00;;;13.10;88.50;;;;;;5061239;28;20473;-72
2021/11/09 12:03:39;;;;;;;1.53;1.00;;;13.10;88.90;;;;;;5073365;28;20489;-72
2021/11/09 12:06:26;;;;;;;1.60;1.10;;;13.10;88.50;;;;;;5070553;28;20547;-73
2021/11/09 12:08:56;;;;;;;1.53;1.10;;;13.10;89.00;;;;;;5066074;28;20672;-73
2021/11/09 12:11:46;;;;;;;1.53;1.00;;;13.20;90.20;;;;;;5072404;28;20462;-73
2021/11/09 12:14:17;;;;;;;1.53;1.10;;;13.20;88.80;;;;;;5063938;28;20465;-73
2021/11/09 12:16:48;;;;;;;1.50;1.00;;;13.10;87.70;;;;;;5058745;28;20912;-73
2021/11/09 12:19:47;;;;;;;1.57;1.00;;;13.10;87.70;;;;;;5061208;28;20472;-74
2021/11/09 12:22:16;;;;;;;1.57;1.00;;;13.10;87.90;;;;;;5048546;28;20526;-73
2021/11/09 12:24:49;;;;;;;1.57;1.00;;;13.20;88.90;;;;;;5058686;28;20469;-73
2021/11/09 12:27:16;;;;;;;1.57;1.00;;;13.20;87.40;;;;;;5046180;28;20490;-73
2021/11/09 12:29:46;;;;;;;1.57;1.00;;;13.20;88.20;;;;;;5050223;28;20498;-73
2021/11/09 12:32:39;;;;;;;1.60;1.20;;;13.40;88.10;;;;;;5048362;28;20496;-74
2021/11/09 12:35:11;;;;;;;1.50;0.97;;;13.50;86.20;;;;;;5047449;28;20488;-73
2021/11/09 12:37:40;;;;;;;1.53;1.00;;;13.60;86.30;;;;;;5051499;28;20517;-74
2021/11/09 12:40:33;;;;;;;1.53;1.07;;;13.70;87.80;;;;;;5049641;28;20489;-74
2021/11/09 12:43:14;;;;;;;1.60;1.13;;;14.00;87.30;;;;;;5053840;28;20493;-75
2021/11/09 12:45:44;;;;;;;1.70;1.30;;;14.10;85.90;;;;;;5056535;28;20838;-74
2021/11/09 12:48:13;;;;;;;1.57;1.00;;;14.20;85.50;;;;;;5063391;28;20488;-76
2021/11/09 12:50:46;;;;;;;1.60;1.20;;;14.30;84.90;;;;;;5055780;28;20564;-75
2021/11/09 12:53:21;;;;;;;1.57;1.00;;;14.30;83.80;;;;;;5064903;28;20462;-75
2021/11/09 12:56:00;;;;;;;1.57;1.00;;;14.40;85.50;;;;;;5050441;28;20468;-75
2021/11/09 12:58:31;;;;;;;1.60;1.10;;;14.40;83.90;;;;;;5059344;28;20486;-76
2021/11/09 13:01:41;;;;;;;1.53;1.00;;;14.40;84.20;;;;;;5049904;28;20454;-75
2021/11/09 13:04:22;;;;;;;1.57;1.00;;;14.50;84.60;;;;;;5048094;28;20486;-75
2021/11/09 13:09:44;;;;;;;1.50;1.00;;;14.60;84.50;;;;;;5040586;28;20466;-74
2021/11/09 13:12:15;;;;;;;1.57;1.00;;;14.60;83.40;;;;;;5054240;28;20462;-77
2021/11/09 13:14:44;;;;;;;1.60;1.00;;;14.50;82.90;;;;;;5056483;28;20521;-77
2021/11/09 13:17:14;;;;;;;1.50;1.00;;;14.50;83.30;;;;;;5062026;28;20869;-76
2021/11/09 13:19:43;;;;;;;1.60;1.00;;;14.40;82.00;;;;;;5061977;28;20514;-78
2021/11/09 13:22:12;;;;;;;1.53;1.00;;;14.20;84.00;;;;;;5060328;28;20507;-77
2021/11/09 13:24:43;;;;;;;1.53;1.00;;;14.20;83.70;;;;;;5054907;28;20466;-75
2021/11/09 13:27:13;;;;;;;1.57;1.00;;;14.20;84.40;;;;;;5044335;28;20479;-75
2021/11/09 13:29:48;;;;;;;1.50;1.00;;;14.20;84.20;;;;;;5049593;28;20850;-73
2021/11/09 13:32:17;;;;;;;1.60;1.00;;;14.20;84.00;;;;;;5046264;28;20577;-75
2021/11/09 13:34:53;;;;;;;1.50;1.00;;;14.20;84.30;;;;;;5052246;28;21069;-75
2021/11/09 13:37:20;;;;;;;1.60;1.10;;;14.20;84.80;;;;;;5049099;28;20987;-74
2021/11/09 13:39:58;;;;;;;1.50;0.90;;;14.20;84.70;;;;;;5048292;28;20465;-74
2021/11/09 13:42:27;;;;;;;1.50;1.00;;;14.20;84.00;;;;;;5052864;28;20490;-75
2021/11/09 13:44:54;;;;;;;1.50;1.00;;;14.20;83.80;;;;;;5056433;28;20469;-74
2021/11/09 13:47:30;;;;;;;1.50;1.00;;;14.10;83.80;;;;;;5056209;28;21030;-74
2021/11/09 13:50:05;;;;;;;1.57;1.00;;;14.00;84.80;;;;;;5056752;28;20492;-74
2021/11/09 13:52:32;;;;;;;1.57;1.00;;;14.00;85.20;;;;;;5056465;28;20957;-75
2021/11/09 13:55:00;;;;;;;1.57;1.10;;;14.00;85.20;;;;;;5058605;28;20475;-75
2021/11/09 13:57:30;;;;;;;1.57;1.00;;;13.90;85.60;;;;;;5054946;28;20897;-74
2021/11/09 13:59:57;;;;;;;1.60;1.10;;;13.80;85.20;;;;;;5053051;28;20485;-74
2021/11/09 14:02:29;;;;;;;1.50;1.00;;;13.70;85.80;;;;;;5055997;28;20600;-75
2021/11/09 14:05:33;;;;;;;1.53;1.07;;;13.60;85.90;;;;;;5050369;28;20485;-74
2021/11/09 14:08:10;;;;;;;1.50;1.00;;;13.50;86.80;;;;;;5052733;28;20590;-74
2021/11/09 14:13:35;;;;;;;1.53;1.00;;;13.30;87.30;;;;;;5055340;28;20540;-75
2021/11/09 14:16:19;;;;;;;1.57;1.03;;;13.20;87.70;;;;;;5052554;28;20468;-74
2021/11/09 14:18:50;;;;;;;1.53;1.00;;;13.10;88.20;;;;;;5057505;28;20483;-74
2021/11/09 14:21:17;;;;;;;1.70;1.30;;;13.00;88.40;;;;;;5046674;28;20471;-74
2021/11/09 14:23:44;;;;;;;1.50;1.00;;;13.00;89.00;;;;;;5049148;28;20481;-75
2021/11/09 14:26:20;;;;;;;1.60;1.20;;;12.90;88.00;;;;;;5051798;28;20473;-74
2021/11/09 14:28:49;;;;;;;1.50;0.93;;;12.90;88.80;;;;;;5049886;28;21117;-74
2021/11/09 14:31:18;;;;;;;1.60;1.10;;;12.80;88.40;;;;;;5053469;28;20818;-74
2021/11/09 14:33:48;;;;;;;1.53;1.10;;;12.80;88.70;;;;;;5052929;28;20462;-74
2021/11/09 14:36:26;;;;;;;1.60;1.10;;;12.70;88.90;;;;;;5049828;28;21020;-74
2021/11/09 14:39:12;;;;;;;1.60;1.10;;;12.70;89.40;;;;;;5052002;28;20461;-74
2021/11/09 14:42:10;;;;;;;1.50;1.10;;;12.60;88.40;;;;;;5050335;28;20547;-74
2021/11/09 14:45:10;;;;;;;1.53;1.00;;;12.60;85.40;;;;;;5058709;28;20954;-75
2021/11/09 14:47:43;;;;;;;1.50;1.07;;;12.50;86.30;;;;;;5055952;28;20481;-75
2021/11/09 14:50:20;;;;;;;1.57;1.03;;;12.50;86.70;;;;;;5058644;28;20544;-75
2021/11/09 14:52:47;;;;;;;1.60;1.30;;;12.40;85.50;;;;;;5050924;28;20957;-75
2021/11/09 14:55:24;;;;;;;1.57;1.00;;;12.30;86.30;;;;;;5049324;28;20495;-75